createdAt,value
2019-05-02T06:32:57.191Z,10.13
2019-05-02T06:35:25.492Z,9.73
2019-05-02T06:37:53.771Z,8.58
2019-05-02T06:40:22.072Z,6.80
2019-05-02T06:42:50.353Z,7.05
2019-05-02T06:45:18.651Z,6.50
2019-05-02T06:50:40.809Z,25.55
2019-05-02T06:53:11.060Z,27.15
2019-05-02T06:55:39.203Z,28.90
2019-05-02T06:58:08.123Z,30.88
2019-05-02T07:00:55.226Z,34.23
2019-05-02T07:03:10.235Z,34.90
2019-05-02T07:05:36.831Z,34.75
2019-05-02T07:08:06.638Z,37.15
2019-05-02T07:10:44.429Z,37.13
2019-05-02T07:13:10.672Z,37.85
2019-05-02T07:15:38.512Z,39.23
2019-05-02T07:18:14.440Z,39.33
2019-05-02T07:20:42.768Z,38.05
2019-05-02T07:23:16.424Z,40.05
2019-05-02T07:25:43.871Z,39.08
2019-05-02T07:28:12.313Z,39.70
2019-05-02T07:30:40.591Z,41.25
2019-05-02T07:33:08.868Z,41.02
2019-05-02T07:35:37.171Z,40.70
2019-05-02T07:38:05.451Z,41.37
2019-05-02T07:40:33.753Z,41.75
2019-05-02T07:43:02.042Z,42.35
2019-05-02T07:45:30.618Z,39.73
2019-05-02T07:48:01.596Z,40.20
2019-05-02T07:50:32.386Z,40.05
2019-05-02T07:53:04.355Z,41.73
2019-05-02T07:55:35.315Z,41.53
2019-05-02T07:58:06.855Z,42.17
2019-05-02T08:00:37.106Z,44.27
2019-05-02T08:03:04.982Z,41.80
2019-05-02T08:05:32.312Z,44.05
2019-05-02T08:08:00.589Z,44.25
2019-05-02T08:10:28.928Z,42.90
2019-05-02T08:12:57.177Z,44.23
2019-05-02T08:15:25.468Z,44.10
2019-05-02T08:17:55.312Z,43.52
2019-05-02T08:20:23.733Z,41.98
2019-05-02T08:22:52.010Z,42.40
2019-05-02T08:25:20.361Z,42.25
2019-05-02T08:27:50.303Z,39.85
2019-05-02T08:30:20.318Z,41.85
2019-05-02T08:32:48.620Z,41.18
2019-05-02T08:35:16.894Z,38.13
2019-05-02T08:37:45.252Z,37.00
2019-05-02T08:40:13.907Z,37.58
2019-05-02T08:42:42.247Z,36.93
2019-05-02T08:45:10.882Z,36.68
2019-05-02T08:47:39.183Z,34.13
2019-05-02T08:50:07.887Z,35.58
2019-05-02T08:52:36.840Z,33.10
2019-05-02T08:55:09.711Z,34.43
2019-05-02T08:57:37.363Z,34.95
2019-05-02T09:00:08.978Z,34.23
2019-05-02T09:02:41.754Z,34.65
2019-05-02T09:05:07.402Z,34.10
2019-05-02T09:07:37.176Z,34.80
2019-05-02T09:10:08.052Z,34.10
2019-05-02T09:12:36.793Z,33.95
2019-05-02T09:15:07.058Z,33.55
2019-05-02T09:17:38.798Z,33.63
2019-05-02T09:20:15.131Z,33.95
2019-05-02T09:22:36.885Z,32.75
2019-05-02T09:25:08.210Z,34.38
2019-05-02T09:27:36.845Z,33.45
2019-05-02T09:30:12.127Z,34.43
2019-05-02T09:32:41.872Z,32.65
2019-05-02T09:35:11.738Z,33.75
2019-05-02T09:37:41.968Z,32.42
2019-05-02T09:40:12.623Z,33.20
2019-05-02T09:42:42.772Z,33.25
2019-05-02T09:45:12.277Z,31.97
2019-05-02T09:47:53.922Z,33.05
2019-05-02T09:50:12.860Z,32.78
2019-05-02T09:52:44.164Z,33.08
2019-05-02T09:55:12.300Z,31.17
2019-05-02T09:57:42.618Z,32.53
2019-05-02T10:00:32.376Z,34.13
2019-05-02T10:02:57.327Z,33.20
2019-05-02T10:05:25.609Z,32.90
2019-05-02T10:07:57.485Z,34.27
2019-05-02T10:10:24.064Z,32.85
2019-05-02T10:12:52.425Z,35.58
2019-05-02T10:15:22.197Z,37.00
2019-05-02T10:17:51.938Z,36.35
2019-05-02T10:20:23.598Z,36.20
2019-05-02T10:22:52.829Z,34.73
2019-05-02T10:25:20.393Z,33.48
2019-05-02T10:27:48.677Z,33.90
2019-05-02T10:30:17.246Z,33.15
2019-05-02T10:32:47.190Z,33.88
2019-05-02T10:35:17.594Z,33.42
2019-05-02T10:37:46.233Z,34.10
2019-05-02T10:40:17.146Z,32.28
2019-05-02T10:42:44.804Z,32.03
2019-05-02T10:45:16.747Z,33.15
2019-05-02T10:47:44.250Z,33.05
2019-05-02T10:50:14.805Z,33.45
2019-05-02T10:52:43.088Z,33.55
2019-05-02T10:55:12.952Z,33.50
2019-05-02T10:57:42.068Z,34.63
2019-05-02T11:00:16.923Z,36.10
2019-05-02T11:02:49.784Z,34.60
2019-05-02T11:05:24.668Z,36.40
2019-05-02T11:07:52.156Z,35.83
2019-05-02T11:10:21.689Z,33.95
2019-05-02T11:12:52.634Z,35.35
2019-05-02T11:15:23.163Z,33.95
2019-05-02T11:17:52.958Z,35.35
2019-05-02T11:20:22.449Z,35.50
2019-05-02T11:22:52.687Z,34.15
2019-05-02T11:25:22.534Z,34.33
2019-05-02T11:27:52.511Z,33.95
2019-05-02T11:30:26.376Z,36.65
2019-05-02T11:32:52.154Z,35.13
2019-05-02T11:35:22.269Z,35.35
2019-05-02T11:37:51.685Z,33.65
2019-05-02T11:40:20.148Z,33.25
2019-05-02T11:42:48.430Z,32.40
2019-05-02T11:45:16.803Z,33.83
2019-05-02T11:47:45.092Z,31.65
2019-05-02T11:50:13.387Z,31.93
2019-05-02T11:52:42.450Z,31.42
2019-05-02T11:55:12.980Z,32.60
2019-05-02T11:57:42.618Z,31.35
2019-05-02T12:00:12.421Z,29.82
2019-05-02T12:02:42.539Z,29.60
2019-05-02T12:05:12.878Z,28.57
2019-05-02T12:07:41.785Z,29.12
2019-05-02T12:10:12.383Z,27.67
2019-05-02T12:12:40.539Z,28.38
2019-05-02T12:15:09.111Z,29.60
2019-05-02T12:17:37.393Z,28.77
2019-05-02T12:20:06.966Z,28.67
2019-05-02T12:22:35.257Z,27.95
2019-05-02T12:25:03.834Z,26.82
2019-05-02T12:27:32.112Z,25.17
2019-05-02T12:30:00.398Z,26.48
2019-05-02T12:32:28.699Z,25.95
2019-05-02T12:34:56.984Z,26.35
2019-05-02T12:37:25.373Z,27.00
2019-05-02T12:39:55.288Z,26.55
2019-05-02T12:42:24.353Z,27.35
2019-05-02T12:44:53.311Z,26.60
2019-05-02T12:47:22.540Z,26.97
2019-05-02T12:49:51.909Z,26.20
2019-05-02T12:52:22.450Z,28.83
2019-05-02T12:54:52.400Z,27.20
2019-05-02T12:57:21.966Z,27.52
2019-05-02T12:59:52.344Z,27.95
2019-05-02T13:02:32.126Z,26.45
2019-05-02T13:05:02.379Z,27.95
2019-05-02T13:07:31.740Z,27.73
2019-05-02T13:10:01.875Z,27.22
2019-05-02T13:12:32.315Z,27.37
2019-05-02T13:15:02.224Z,27.17
2019-05-02T13:17:30.689Z,27.00
2019-05-02T13:20:03.114Z,28.50
2019-05-02T13:22:39.637Z,27.52
2019-05-02T13:25:10.484Z,27.32
2019-05-02T13:27:44.405Z,27.90
2019-05-02T13:30:12.506Z,26.60
2019-05-02T13:32:42.761Z,26.65
2019-05-02T13:35:13.061Z,26.87
2019-05-02T13:37:42.422Z,26.48
2019-05-02T13:40:12.474Z,26.87
2019-05-02T13:42:41.822Z,26.02
2019-05-02T13:45:28.578Z,25.92
2019-05-02T13:47:56.874Z,27.05
2019-05-02T13:50:25.405Z,27.77
2019-05-02T13:52:57.863Z,27.02
2019-05-02T13:55:34.070Z,27.15
2019-05-02T13:58:02.524Z,28.77
2019-05-02T14:00:35.078Z,27.60
2019-05-02T14:03:03.427Z,26.77
2019-05-02T14:05:31.898Z,28.32
2019-05-02T14:08:18.123Z,29.57
2019-05-02T14:10:52.699Z,28.90
2019-05-02T14:13:22.141Z,32.13
2019-05-02T14:15:52.613Z,34.08
2019-05-02T14:18:21.947Z,36.30
2019-05-02T14:20:52.593Z,39.10
2019-05-02T14:23:22.143Z,40.40
2019-05-02T14:25:52.080Z,40.50
2019-05-02T14:28:22.306Z,41.13
2019-05-02T14:30:52.532Z,42.78
2019-05-02T14:33:23.244Z,46.65
2019-05-02T14:35:52.597Z,47.20
2019-05-02T14:38:22.118Z,49.65
2019-05-02T14:40:52.197Z,50.03
2019-05-02T14:43:46.205Z,46.45
2019-05-02T14:46:08.598Z,49.93
2019-05-02T14:48:45.080Z,46.60
2019-05-02T14:51:11.842Z,50.50
2019-05-02T14:53:40.248Z,49.55
2019-05-02T14:56:12.898Z,49.83
2019-05-02T14:58:42.715Z,49.38
2019-05-02T15:01:16.887Z,48.60
2019-05-02T15:03:42.321Z,53.10
2019-05-02T15:06:11.673Z,51.88
2019-05-02T15:08:42.044Z,50.92
2019-05-02T15:11:10.045Z,52.67
2019-05-02T15:13:41.029Z,52.58
2019-05-02T15:16:12.369Z,53.48
2019-05-02T15:18:38.420Z,53.25
2019-05-02T15:21:12.135Z,53.60
2019-05-02T15:23:36.774Z,54.88
2019-05-02T15:26:05.088Z,55.10
2019-05-02T15:28:37.365Z,58.13
2019-05-02T15:31:07.715Z,59.10
2019-05-02T15:33:37.642Z,62.55
2019-05-02T15:36:13.887Z,59.05
2019-05-02T15:38:47.233Z,65.00
2019-05-02T15:41:13.611Z,60.85
2019-05-02T15:43:44.490Z,66.40
2019-05-02T15:46:15.791Z,65.83
2019-05-02T15:48:42.350Z,64.80
2019-05-02T15:51:12.302Z,63.28
2019-05-02T15:53:49.716Z,60.58
2019-05-02T15:56:19.792Z,58.52
2019-05-02T15:58:45.537Z,60.12
2019-05-02T16:01:32.101Z,66.87
2019-05-02T16:04:02.233Z,62.38
2019-05-02T16:06:33.624Z,61.02
2019-05-02T16:09:02.474Z,62.13
2019-05-02T16:11:32.222Z,62.05
2019-05-02T16:14:02.164Z,61.70
2019-05-02T16:16:32.041Z,59.40
2019-05-02T16:19:02.202Z,64.20
2019-05-02T16:21:34.934Z,64.75
2019-05-02T16:24:23.142Z,65.15
2019-05-02T16:26:52.946Z,68.15
2019-05-02T16:29:26.769Z,65.72
2019-05-02T16:31:54.983Z,68.42
2019-05-02T16:34:27.357Z,67.82
2019-05-02T16:36:55.655Z,72.12
2019-05-02T16:39:23.937Z,70.32
2019-05-02T16:41:52.931Z,76.60
2019-05-02T16:44:22.347Z,73.42
2019-05-02T16:46:52.098Z,77.78
2019-05-02T16:49:22.729Z,71.22
2019-05-02T16:51:52.853Z,73.05
2019-05-02T16:54:22.353Z,69.75
2019-05-02T16:56:52.149Z,66.85
2019-05-02T16:59:21.578Z,69.72
2019-05-02T17:01:52.718Z,69.03
2019-05-02T17:04:22.317Z,63.50
2019-05-02T17:06:52.343Z,61.98
2019-05-02T17:09:33.847Z,65.57
2019-05-02T17:12:06.491Z,67.70
2019-05-02T17:14:33.165Z,66.87
2019-05-02T17:17:01.633Z,65.97
2019-05-02T17:19:33.389Z,66.92
2019-05-02T17:21:59.881Z,64.17
2019-05-02T17:24:28.185Z,65.32
2019-05-02T17:26:56.499Z,65.22
2019-05-02T17:29:24.786Z,63.08
2019-05-02T17:31:55.343Z,63.13
2019-05-02T17:34:29.942Z,61.08
2019-05-02T17:36:53.159Z,62.08
2019-05-02T17:39:22.321Z,63.15
2019-05-02T17:41:52.414Z,65.80
2019-05-02T17:44:22.629Z,62.88
2019-05-02T17:46:58.417Z,60.40
2019-05-02T17:49:23.908Z,64.55
2019-05-02T17:52:11.206Z,62.38
2019-05-02T17:54:38.605Z,64.15
2019-05-02T17:57:06.931Z,67.90
2019-05-02T17:59:37.572Z,68.28
2019-05-02T18:02:06.540Z,63.17
2019-05-02T18:04:35.653Z,59.70
2019-05-02T18:07:03.989Z,54.88
2019-05-02T18:09:35.053Z,57.03
2019-05-02T18:12:02.335Z,57.93
2019-05-02T18:14:30.610Z,52.80
2019-05-02T18:16:58.937Z,53.08
2019-05-02T18:19:27.207Z,52.98
2019-05-02T18:21:58.167Z,54.10
2019-05-02T18:24:25.553Z,52.45
2019-05-02T18:26:54.122Z,48.38
2019-05-02T18:29:22.448Z,52.45
2019-05-02T18:31:52.135Z,51.02
2019-05-02T18:34:25.038Z,52.05
2019-05-02T18:36:52.392Z,50.28
2019-05-02T18:39:22.194Z,52.67
2019-05-02T18:41:51.925Z,48.45
2019-05-02T18:44:21.867Z,46.90
2019-05-02T18:46:51.887Z,49.00
2019-05-02T18:49:21.923Z,48.80
2019-05-02T18:51:53.776Z,49.33
2019-05-02T18:54:21.694Z,46.80
2019-05-02T18:56:54.665Z,47.20
2019-05-02T18:59:22.465Z,44.53
2019-05-02T19:01:52.657Z,45.08
2019-05-02T19:04:22.399Z,46.55
2019-05-02T19:06:51.910Z,44.45
2019-05-02T19:09:24.973Z,41.88
2019-05-02T19:11:52.242Z,41.73
2019-05-02T19:14:22.303Z,42.58
2019-05-02T19:16:52.059Z,41.60
2019-05-02T19:19:22.454Z,38.42
2019-05-02T19:21:51.733Z,39.50
2019-05-02T19:24:20.121Z,42.00
2019-05-02T19:26:49.619Z,40.03
2019-05-02T19:29:21.589Z,37.78
2019-05-02T19:31:52.318Z,37.88
2019-05-02T19:34:25.063Z,38.58
2019-05-02T19:36:50.243Z,36.05
2019-05-02T19:39:18.572Z,36.33
2019-05-02T19:41:46.858Z,35.48
2019-05-02T19:44:15.472Z,35.17
2019-05-02T19:46:43.863Z,35.80
2019-05-02T19:49:16.002Z,34.58
2019-05-02T19:51:42.442Z,35.10
2019-05-02T19:54:12.494Z,35.95
2019-05-02T19:56:46.150Z,33.65
2019-05-02T19:59:12.001Z,33.40
2019-05-02T20:01:40.452Z,29.65
2019-05-02T20:04:09.521Z,31.40
2019-05-02T20:06:38.774Z,32.75
2019-05-02T20:09:08.460Z,32.33
2019-05-02T20:11:37.003Z,33.25
2019-05-02T20:14:09.309Z,33.20
2019-05-02T20:16:44.147Z,30.97
2019-05-02T20:19:12.329Z,31.55
2019-05-02T20:21:43.011Z,33.23
2019-05-02T20:24:17.383Z,33.05
2019-05-02T20:26:41.839Z,32.28
2019-05-02T20:29:10.229Z,31.50
2019-05-02T20:31:38.524Z,34.50
2019-05-02T20:34:06.812Z,32.10
2019-05-02T20:36:35.115Z,34.58
2019-05-02T20:39:05.445Z,34.92
2019-05-02T20:41:33.754Z,16.97
2019-05-02T20:44:02.628Z,11.95
2019-05-02T20:46:32.639Z,9.90
2019-05-02T20:49:01.986Z,9.08
2019-05-02T20:51:31.919Z,9.08
2019-05-02T20:54:01.986Z,9.85
2019-05-02T20:56:32.070Z,8.20
2019-05-02T20:59:02.010Z,7.85
2019-05-02T21:01:32.184Z,7.70
2019-05-02T21:04:02.590Z,7.87
2019-05-02T21:06:44.567Z,7.08
2019-05-02T21:09:14.483Z,7.45
2019-05-02T21:11:44.425Z,7.67
2019-05-02T21:14:12.701Z,7.62
2019-05-02T21:16:40.984Z,7.45
2019-05-02T21:19:09.265Z,7.17
2019-05-02T21:21:40.195Z,7.62
2019-05-02T21:24:08.289Z,7.33
2019-05-02T21:26:36.589Z,8.50
2019-05-02T21:29:04.934Z,7.53
2019-05-02T21:31:33.229Z,8.38
2019-05-02T21:34:02.590Z,8.13
2019-05-02T21:36:31.954Z,7.80
2019-05-02T21:39:00.355Z,7.70
2019-05-02T21:41:28.632Z,7.58
2019-05-02T21:43:56.902Z,7.22
2019-05-02T21:46:25.203Z,7.70
2019-05-02T21:48:53.477Z,9.23
2019-05-02T21:51:38.177Z,7.65
2019-05-02T21:54:12.230Z,7.90
2019-05-02T21:56:47.662Z,8.28
2019-05-02T21:59:15.927Z,7.75
2019-05-02T22:01:47.868Z,6.95
2019-05-02T22:04:16.214Z,6.27
2019-05-02T22:06:44.513Z,6.35
2019-05-02T22:09:12.856Z,6.70
2019-05-02T22:11:42.894Z,7.12
2019-05-02T22:14:13.372Z,7.08
2019-05-02T22:16:42.060Z,7.10
2019-05-02T22:19:10.598Z,6.08
2019-05-02T22:21:38.940Z,6.87
2019-05-02T22:24:11.125Z,6.87
2019-05-02T22:26:37.240Z,6.62
2019-05-02T22:29:05.528Z,5.60
2019-05-02T22:31:33.801Z,5.55
2019-05-02T22:34:02.318Z,5.08
2019-05-02T22:36:32.434Z,5.17
2019-05-02T22:39:12.649Z,5.05
2019-05-02T22:41:41.973Z,5.45
2019-05-02T22:44:12.492Z,5.42
2019-05-02T22:46:43.318Z,5.80
2019-05-02T22:49:14.508Z,5.37
2019-05-02T22:51:43.357Z,5.15
2019-05-02T22:54:24.255Z,5.20
2019-05-02T22:56:42.641Z,5.45
2019-05-02T22:59:11.059Z,5.65
2019-05-02T23:01:39.347Z,6.37
2019-05-02T23:04:07.708Z,6.62
2019-05-02T23:06:36.003Z,6.62
2019-05-02T23:09:06.522Z,7.12
2019-05-02T23:11:34.872Z,7.47
2019-05-02T23:14:03.251Z,7.83
2019-05-02T23:16:32.230Z,9.08
2019-05-02T23:19:02.788Z,8.73
2019-05-02T23:21:32.552Z,8.48
2019-05-02T23:24:02.669Z,8.20
2019-05-02T23:26:48.684Z,8.00
2019-05-02T23:29:18.650Z,8.93
2019-05-02T23:31:46.945Z,8.60
2019-05-02T23:34:15.501Z,9.00
2019-05-02T23:36:43.784Z,10.00
2019-05-02T23:39:12.577Z,9.33
2019-05-02T23:41:42.038Z,9.20
2019-05-02T23:44:12.248Z,9.45
2019-05-02T23:46:42.435Z,9.38
2019-05-02T23:49:12.801Z,8.73
2019-05-02T23:51:42.690Z,8.58
2019-05-02T23:54:12.777Z,8.15
2019-05-02T23:56:42.732Z,9.03
2019-05-02T23:59:11.845Z,8.55
